Time,TemperatureF,DewpointF,PressureIn,WindDirection,WindDirectionDegrees,WindSpeedMPH,WindSpeedGustMPH,Humidity,HourlyPrecipIn,Conditions,Clouds,dailyrainin,SoftwareType,DateUTC
2013-12-28 00:22:00,32.0,19.0,30.32,ESE,115,4.0,4.0,57,0.00,,,-99.99,,2013-12-28 07:22:00,
2013-12-28 00:52:00,32.0,19.0,30.31,ESE,102,4.0,5.0,58,0.00,,,-99.99,,2013-12-28 07:52:00,
2013-12-28 01:22:00,28.0,18.0,30.30,ESE,118,5.0,5.0,67,0.00,,,-99.99,,2013-12-28 08:22:00,
2013-12-28 01:52:00,30.0,19.0,30.30,ESE,104,4.0,6.0,63,0.00,,,-99.99,,2013-12-28 08:52:00,
2013-12-28 02:21:00,29.0,18.0,30.31,ESE,106,4.0,5.0,64,0.00,,,-99.99,,2013-12-28 09:21:00,
2013-12-28 02:43:00,29.0,18.0,30.31,ESE,123,5.0,6.0,64,0.00,,,-99.99,,2013-12-28 09:43:00,
2013-12-28 02:53:00,29.0,19.0,30.31,ESE,104,6.0,7.0,66,0.00,,,-99.99,,2013-12-28 09:53:00,
2013-12-28 03:23:00,28.0,18.0,30.30,SE,142,6.0,6.0,66,0.00,,,-99.99,,2013-12-28 10:23:00,
2013-12-28 03:53:00,31.0,18.0,30.28,SE,132,4.0,6.0,57,0.00,,,-99.99,,2013-12-28 10:53:00,
2013-12-28 04:22:00,31.0,18.0,30.28,ESE,123,6.0,7.0,58,0.00,,,-99.99,,2013-12-28 11:22:00,
2013-12-28 04:52:00,28.0,18.0,30.28,South,188,0.0,0.0,66,0.00,,,-99.99,,2013-12-28 11:52:00,
2013-12-28 05:23:00,30.0,19.0,30.27,East,90,2.0,4.0,63,0.00,,,-99.99,,2013-12-28 12:23:00,
2013-12-28 05:42:00,28.0,18.0,30.26,East,95,0.0,3.0,66,0.00,,,-99.99,,2013-12-28 12:42:00,
2013-12-28 05:52:00,28.0,18.0,30.26,East,95,0.0,3.0,66,0.00,,,-99.99,,2013-12-28 12:52:00,
2013-12-28 06:22:00,27.0,18.0,30.27,North,4,0.0,0.0,67,0.00,,,-99.99,,2013-12-28 13:22:00,
2013-12-28 06:42:00,28.0,19.0,30.27,North,4,0.0,0.0,68,0.00,,,-99.99,,2013-12-28 13:42:00,
2013-12-28 06:52:00,26.0,18.0,30.27,ESE,104,7.0,7.0,71,0.00,,,-99.99,,2013-12-28 13:52:00,
2013-12-28 07:22:00,27.0,19.0,30.25,ESE,116,5.0,6.0,70,0.00,,,-99.99,,2013-12-28 14:22:00,
2013-12-28 07:53:00,28.0,18.0,30.25,ESE,119,0.0,4.0,65,0.00,,,-99.99,,2013-12-28 14:53:00,
2013-12-28 08:02:00,28.0,18.0,30.25,ESE,119,0.0,4.0,65,0.00,,,-99.99,,2013-12-28 15:02:00,
2013-12-28 08:22:00,29.0,19.0,30.25,ENE,77,0.0,1.0,65,0.00,,,-99.99,,2013-12-28 15:22:00,
2013-12-28 08:53:00,32.0,20.0,30.20,ENE,77,0.0,1.0,60,0.00,,,-99.99,,2013-12-28 15:53:00,
2013-12-28 09:23:00,33.0,19.0,30.17,South,177,2.0,6.0,56,0.00,,,-99.99,,2013-12-28 16:23:00,
2013-12-28 09:43:00,34.0,19.0,30.15,South,188,5.0,6.0,54,0.00,,,-99.99,,2013-12-28 16:43:00,
2013-12-28 09:53:00,34.0,19.0,30.14,WSW,244,6.0,6.0,53,0.00,,,-99.99,,2013-12-28 16:53:00,
2013-12-28 10:22:00,35.0,19.0,30.12,SSW,201,8.0,8.0,51,0.00,,,-99.99,,2013-12-28 17:22:00,
2013-12-28 10:52:00,37.0,20.0,30.08,SSW,209,7.0,10.0,49,0.00,,,-99.99,,2013-12-28 17:52:00,
2013-12-28 11:22:00,38.0,19.0,30.06,SW,220,8.0,11.0,46,0.00,,,-99.99,,2013-12-28 18:22:00,
2013-12-28 11:42:00,39.0,19.0,30.04,SW,217,8.0,10.0,45,0.00,,,-99.99,,2013-12-28 18:42:00,
2013-12-28 11:52:00,40.0,19.0,30.03,SSW,192,8.0,9.0,43,0.00,,,-99.99,,2013-12-28 18:52:00,
2013-12-28 12:21:00,41.0,18.0,29.99,WSW,240,8.0,9.0,39,0.00,,,-99.99,,2013-12-28 19:21:00,
2013-12-28 12:42:00,41.0,18.0,29.98,SW,217,5.0,11.0,39,0.00,,,-99.99,,2013-12-28 19:42:00,
2013-12-28 12:52:00,42.0,17.0,29.96,SW,216,2.0,7.0,36,0.00,,,-99.99,,2013-12-28 19:52:00,
2013-12-28 13:22:00,43.0,17.0,29.93,SW,216,5.0,9.0,35,0.00,,,-99.99,,2013-12-28 20:22:00,
2013-12-28 13:52:00,44.0,17.0,29.91,WSW,244,8.0,10.0,33,0.00,,,-99.99,,2013-12-28 20:52:00,
2013-12-28 14:22:00,45.0,16.0,29.90,South,178,6.0,8.0,31,0.00,,,-99.99,,2013-12-28 21:22:00,
2013-12-28 14:53:00,46.0,17.0,29.88,SW,215,3.0,9.0,31,0.00,,,-99.99,,2013-12-28 21:53:00,
2013-12-28 15:23:00,46.0,16.0,29.88,SSW,199,4.0,8.0,30,0.00,,,-99.99,,2013-12-28 22:23:00,
2013-12-28 15:52:00,46.0,17.0,29.88,SW,223,5.0,7.0,31,0.00,,,-99.99,,2013-12-28 22:52:00,
2013-12-28 16:22:00,46.0,18.0,29.89,SW,216,5.0,8.0,32,0.00,,,-99.99,,2013-12-28 23:22:00,
2013-12-28 16:53:00,46.0,19.0,29.90,SW,216,3.0,4.0,33,0.00,,,-99.99,,2013-12-28 23:53:00,
2013-12-28 17:22:00,44.0,17.0,29.92,SW,230,2.0,4.0,34,0.00,,,-99.99,,2013-12-29 00:22:00,
2013-12-28 17:42:00,44.0,18.0,29.93,SW,222,0.0,2.0,35,0.00,,,-99.99,,2013-12-29 00:42:00,
2013-12-28 17:52:00,43.0,18.0,29.94,SW,222,0.0,0.0,36,0.00,,,-99.99,,2013-12-29 00:52:00,
2013-12-28 18:22:00,41.0,18.0,29.95,SW,217,0.0,0.0,39,0.00,,,-99.99,,2013-12-29 01:22:00,
2013-12-28 18:52:00,41.0,19.0,29.97,SW,217,0.0,0.0,40,0.00,,,-99.99,,2013-12-29 01:52:00,
2013-12-28 19:22:00,40.0,19.0,29.98,SW,217,0.0,0.0,43,0.00,,,-99.99,,2013-12-29 02:22:00,
2013-12-28 19:42:00,39.0,20.0,29.98,ESE,113,2.0,6.0,47,0.00,,,-99.99,,2013-12-29 02:42:00,
2013-12-28 19:52:00,39.0,20.0,29.98,ESE,105,4.0,5.0,47,0.00,,,-99.99,,2013-12-29 02:52:00,
2013-12-28 20:22:00,39.0,19.0,29.98,SSE,149,4.0,4.0,45,0.00,,,-99.99,,2013-12-29 03:22:00,
2013-12-28 20:53:00,39.0,19.0,29.98,ESE,106,4.0,4.0,44,0.00,,,-99.99,,2013-12-29 03:53:00,
2013-12-28 21:02:00,-999.0,-99.9,29.98,East,99,6.0,7.0,-999,0.00,,,-99.99,,2013-12-29 04:02:00,
2013-12-28 21:22:00,37.0,20.0,29.98,ESE,122,3.0,7.0,50,0.00,,,-99.99,,2013-12-29 04:22:00,
2013-12-28 21:53:00,36.0,21.0,29.99,SE,130,3.0,4.0,55,0.00,,,-99.99,,2013-12-29 04:53:00,
2013-12-28 22:23:00,37.0,21.0,29.99,East,101,5.0,6.0,53,0.00,,,-99.99,,2013-12-29 05:23:00,
2013-12-28 22:53:00,38.0,22.0,30.00,East,101,6.0,6.0,53,0.00,,,-99.99,,2013-12-29 05:53:00,
2013-12-28 23:22:00,35.0,23.0,30.00,ESE,113,0.0,4.0,60,0.00,,,-99.99,,2013-12-29 06:22:00,
2013-12-28 23:52:00,36.0,23.0,30.00,ESE,116,5.0,6.0,59,0.00,,,-99.99,,2013-12-29 06:52:00,